createdAt,value
2023-03-13T00:01:39.380Z,57.81
2023-03-13T00:04:07.708Z,57.86
2023-03-13T00:06:43.873Z,58.14
2023-03-13T00:09:12.870Z,58.06
2023-03-13T00:11:42.374Z,58.00
2023-03-13T00:14:10.863Z,57.94
2023-03-13T00:16:42.487Z,58.10
2023-03-13T00:19:12.536Z,58.16
2023-03-13T00:21:41.643Z,58.16
2023-03-13T00:24:18.520Z,58.31
2023-03-13T00:26:47.006Z,58.05
2023-03-13T00:29:15.275Z,58.13
2023-03-13T00:31:47.977Z,58.10
2023-03-13T00:34:17.874Z,58.02
2023-03-13T00:36:46.768Z,58.50
2023-03-13T00:39:16.187Z,58.46
2023-03-13T00:41:46.295Z,58.66
2023-03-13T00:44:14.883Z,58.60
2023-03-13T00:46:43.370Z,58.78
2023-03-13T00:49:11.721Z,58.80
2023-03-13T00:51:41.866Z,58.74
2023-03-13T00:54:10.758Z,58.69
2023-03-13T00:56:42.517Z,58.68
2023-03-13T00:59:10.899Z,58.64
2023-03-13T01:01:39.280Z,58.58
2023-03-13T01:04:09.004Z,58.67
2023-03-13T01:06:38.200Z,58.57
2023-03-13T01:09:07.597Z,58.61
2023-03-13T01:11:37.412Z,58.46
2023-03-13T01:14:07.251Z,58.55
2023-03-13T01:16:38.082Z,58.67
2023-03-13T01:19:13.668Z,58.48
2023-03-13T01:21:43.447Z,58.62
2023-03-13T01:24:11.829Z,58.34
2023-03-13T01:26:42.964Z,58.38
2023-03-13T01:29:14.007Z,58.17
2023-03-13T01:31:42.281Z,58.31
2023-03-13T01:34:15.478Z,58.41
2023-03-13T01:36:47.037Z,58.55
2023-03-13T01:39:15.417Z,58.61
2023-03-13T01:41:49.942Z,58.66
2023-03-13T01:44:41.159Z,58.76
2023-03-13T01:47:09.880Z,58.75
2023-03-13T01:50:00.960Z,59.04
2023-03-13T01:52:49.824Z,59.17
2023-03-13T01:55:32.545Z,59.10
2023-03-13T01:58:00.923Z,59.27
2023-03-13T02:00:34.041Z,59.26
2023-03-13T02:03:07.660Z,59.25
2023-03-13T02:05:36.918Z,59.28
2023-03-13T02:08:09.680Z,59.32
2023-03-13T02:10:42.680Z,59.73
2023-03-13T02:13:19.115Z,59.74
2023-03-13T02:15:51.222Z,59.69
2023-03-13T02:18:27.770Z,59.82
2023-03-13T02:21:12.500Z,59.93
2023-03-13T02:23:56.014Z,59.83
2023-03-13T02:26:24.896Z,59.57
2023-03-13T02:28:57.576Z,59.68
2023-03-13T02:31:34.044Z,59.63
2023-03-13T02:34:14.571Z,59.44
2023-03-13T02:36:57.614Z,59.36
2023-03-13T02:39:27.698Z,59.32
2023-03-13T02:42:01.084Z,59.55
2023-03-13T02:44:30.273Z,59.39
2023-03-13T02:46:59.383Z,59.49
2023-03-13T02:49:30.710Z,59.49
2023-03-13T02:52:11.484Z,59.62
2023-03-13T02:54:46.338Z,59.53
2023-03-13T02:57:25.621Z,59.66
2023-03-13T03:00:00.395Z,59.64
2023-03-13T03:02:32.349Z,59.45
2023-03-13T03:05:01.305Z,59.72
2023-03-13T03:08:03.416Z,59.56
2023-03-13T03:10:32.926Z,59.67
2023-03-13T03:13:03.974Z,59.73
2023-03-13T03:15:33.680Z,59.79
2023-03-13T03:18:02.067Z,59.71
2023-03-13T03:20:30.338Z,59.98
2023-03-13T03:22:58.619Z,60.01
2023-03-13T03:25:28.221Z,60.09
2023-03-13T03:27:57.221Z,60.26
2023-03-13T03:30:26.109Z,60.42
2023-03-13T03:32:54.702Z,60.54
2023-03-13T03:35:23.691Z,60.53
2023-03-13T03:37:53.725Z,60.60
2023-03-13T03:40:22.614Z,60.91
2023-03-13T03:42:52.936Z,60.97
2023-03-13T03:45:41.199Z,61.13
2023-03-13T03:48:10.680Z,61.19
2023-03-13T03:50:39.163Z,61.35
2023-03-13T03:53:13.876Z,61.43
2023-03-13T03:55:42.382Z,61.52
2023-03-13T03:58:10.662Z,61.71
2023-03-13T04:00:57.583Z,61.80
2023-03-13T04:03:26.628Z,61.99
2023-03-13T04:05:55.263Z,61.93
2023-03-13T04:08:26.002Z,62.09
2023-03-13T04:11:00.635Z,62.25
2023-03-13T04:13:30.654Z,62.43
2023-03-13T04:16:00.269Z,62.80
2023-03-13T04:18:28.550Z,62.64
2023-03-13T04:21:01.711Z,62.74
2023-03-13T04:23:31.345Z,62.83
2023-03-13T04:26:00.664Z,63.18
2023-03-13T04:28:34.151Z,63.23
2023-03-13T04:31:04.163Z,63.48
2023-03-13T04:33:55.789Z,63.38
2023-03-13T04:36:56.938Z,63.55
2023-03-13T04:39:54.704Z,63.52
2023-03-13T04:42:42.157Z,63.60
2023-03-13T04:45:38.779Z,63.56
2023-03-13T04:48:42.692Z,63.56
2023-03-13T04:51:30.532Z,63.52
2023-03-13T04:54:17.449Z,63.56
2023-03-13T04:56:55.557Z,63.55
2023-03-13T05:00:10.440Z,63.68
2023-03-13T05:03:02.873Z,63.50
2023-03-13T05:05:54.496Z,63.35
2023-03-13T05:08:43.057Z,63.50
2023-03-13T05:11:33.453Z,63.16
2023-03-13T05:14:19.965Z,63.07
2023-03-13T05:16:56.736Z,62.92
2023-03-13T05:19:51.952Z,62.74
2023-03-13T05:22:31.305Z,62.46
2023-03-13T05:25:18.612Z,62.18
2023-03-13T05:28:17.918Z,62.00
2023-03-13T05:30:46.674Z,61.70
2023-03-13T05:33:40.280Z,61.44
2023-03-13T05:36:34.271Z,61.06
2023-03-13T05:39:18.523Z,60.64
2023-03-13T05:41:59.599Z,60.47
2023-03-13T05:45:05.866Z,60.27
2023-03-13T05:47:35.471Z,59.88
2023-03-13T05:50:33.261Z,59.27
2023-03-13T05:53:37.568Z,58.80
2023-03-13T05:56:32.264Z,58.64
2023-03-13T05:59:11.094Z,58.08
2023-03-13T06:01:57.906Z,57.66
2023-03-13T06:04:31.772Z,57.09
2023-03-13T06:07:00.709Z,56.90
2023-03-13T06:09:34.116Z,56.40
2023-03-13T06:12:02.481Z,56.02
2023-03-13T06:14:31.486Z,55.42
2023-03-13T06:17:26.487Z,54.69
2023-03-13T06:19:54.770Z,54.56
2023-03-13T06:22:25.223Z,54.47
2023-03-13T06:24:53.331Z,54.16
2023-03-13T06:27:21.442Z,53.78
2023-03-13T06:29:50.539Z,53.64
2023-03-13T06:32:19.057Z,53.48
2023-03-13T06:34:47.914Z,53.25
2023-03-13T06:37:17.116Z,53.13
2023-03-13T06:39:45.393Z,53.11
2023-03-13T06:42:13.574Z,52.98
2023-03-13T06:44:42.260Z,52.96
2023-03-13T06:47:11.022Z,52.37
2023-03-13T06:49:39.941Z,52.18
2023-03-13T06:52:12.961Z,51.84
2023-03-13T06:54:41.721Z,51.29
2023-03-13T06:57:09.900Z,50.61
2023-03-13T06:59:39.516Z,50.09
2023-03-13T07:02:09.125Z,49.67
2023-03-13T07:04:39.869Z,49.83
2023-03-13T07:07:14.992Z,49.50
2023-03-13T07:09:47.784Z,49.10
2023-03-13T07:12:17.713Z,48.72
2023-03-13T07:14:47.630Z,48.08
2023-03-13T07:17:16.602Z,48.30
2023-03-13T07:19:44.999Z,48.53
2023-03-13T07:22:13.481Z,48.70
2023-03-13T07:24:41.964Z,48.37
2023-03-13T07:27:10.073Z,47.72
2023-03-13T07:29:38.528Z,47.92
2023-03-13T07:32:07.102Z,47.76
2023-03-13T07:34:35.899Z,47.40
2023-03-13T07:37:04.894Z,47.09
2023-03-13T07:39:33.454Z,47.12
2023-03-13T07:42:01.967Z,47.17
2023-03-13T07:44:30.331Z,46.89
2023-03-13T07:47:01.723Z,47.31
2023-03-13T07:49:30.074Z,47.59
2023-03-13T07:51:58.454Z,47.80
2023-03-13T07:54:34.924Z,47.49
2023-03-13T07:57:03.620Z,47.41
2023-03-13T07:59:31.791Z,47.87
2023-03-13T08:02:12.054Z,47.57
2023-03-13T08:05:00.807Z,47.07
2023-03-13T08:07:44.667Z,46.88
2023-03-13T08:10:13.275Z,46.23
2023-03-13T08:12:41.623Z,46.16
2023-03-13T08:15:10.999Z,45.68
2023-03-13T08:17:40.222Z,45.56
2023-03-13T08:20:10.261Z,45.09
2023-03-13T08:22:39.755Z,45.08
2023-03-13T08:25:08.038Z,44.76
2023-03-13T08:27:37.440Z,44.42
2023-03-13T08:30:06.530Z,44.50
2023-03-13T08:32:40.249Z,43.89
2023-03-13T08:35:08.956Z,43.09
2023-03-13T08:37:37.100Z,43.44
2023-03-13T08:40:18.782Z,42.77
2023-03-13T08:43:09.910Z,42.73
2023-03-13T08:45:56.841Z,42.56
2023-03-13T08:48:25.623Z,42.30
2023-03-13T08:51:06.697Z,41.93
2023-03-13T08:53:36.853Z,41.51
2023-03-13T08:56:08.191Z,40.92
2023-03-13T08:58:36.654Z,40.28
2023-03-13T09:01:05.520Z,40.40
2023-03-13T09:03:35.754Z,40.57
2023-03-13T09:06:04.260Z,40.26
2023-03-13T09:08:39.857Z,40.56
2023-03-13T09:11:16.806Z,40.86
2023-03-13T09:14:32.171Z,39.52
2023-03-13T09:17:01.578Z,39.92
2023-03-13T09:19:29.801Z,39.99
2023-03-13T09:21:58.867Z,39.69
2023-03-13T09:24:27.290Z,39.70
2023-03-13T09:27:01.324Z,39.44
2023-03-13T09:29:30.139Z,39.65
2023-03-13T09:31:58.318Z,39.36
2023-03-13T09:34:27.310Z,39.54
2023-03-13T09:36:55.949Z,39.04
2023-03-13T09:39:27.560Z,38.47
2023-03-13T09:42:10.129Z,38.57
2023-03-13T09:44:58.550Z,38.60
2023-03-13T09:47:30.622Z,39.55
2023-03-13T09:50:03.581Z,39.07
2023-03-13T09:52:49.567Z,38.80
2023-03-13T09:55:21.632Z,38.74
2023-03-13T09:57:49.816Z,38.88
2023-03-13T10:00:28.143Z,39.59
2023-03-13T10:03:06.657Z,39.37
2023-03-13T10:05:36.777Z,39.37
2023-03-13T10:08:13.870Z,39.26
2023-03-13T10:10:53.193Z,39.15
2023-03-13T10:13:40.309Z,38.90
2023-03-13T10:16:10.323Z,38.61
2023-03-13T10:18:41.061Z,37.63
2023-03-13T10:21:20.272Z,38.45
2023-03-13T10:23:49.812Z,38.76
2023-03-13T10:26:20.030Z,38.36
2023-03-13T10:28:50.661Z,37.76
2023-03-13T10:31:24.799Z,37.76
2023-03-13T10:33:57.199Z,37.49
2023-03-13T10:36:26.152Z,37.40
2023-03-13T10:38:55.465Z,37.48
2023-03-13T10:41:32.184Z,37.64
2023-03-13T10:44:04.209Z,37.90
2023-03-13T10:46:34.242Z,38.37
2023-03-13T10:49:05.054Z,38.70
2023-03-13T10:51:39.988Z,38.65
2023-03-13T10:54:37.860Z,38.63
2023-03-13T10:57:40.651Z,38.97
2023-03-13T11:00:24.620Z,39.19
2023-03-13T11:02:52.773Z,39.15
2023-03-13T11:05:30.860Z,39.56
2023-03-13T11:07:58.952Z,39.57
2023-03-13T11:10:37.306Z,39.42
2023-03-13T11:13:05.751Z,39.40
2023-03-13T11:15:47.347Z,39.43
2023-03-13T11:18:16.765Z,39.80
2023-03-13T11:20:45.872Z,39.50
2023-03-13T11:23:26.824Z,40.06
2023-03-13T11:26:14.148Z,40.37
2023-03-13T11:28:48.977Z,40.21
2023-03-13T11:31:23.370Z,40.00
2023-03-13T11:34:01.205Z,39.99
2023-03-13T11:36:36.763Z,39.59
2023-03-13T11:39:07.696Z,38.84
2023-03-13T11:41:45.074Z,38.89
2023-03-13T11:44:17.485Z,39.01
2023-03-13T11:47:04.854Z,38.99
2023-03-13T11:49:42.179Z,38.44
2023-03-13T11:52:17.164Z,37.49
2023-03-13T11:54:48.181Z,37.45
2023-03-13T11:57:16.239Z,37.20
2023-03-13T11:59:51.336Z,36.80
2023-03-13T12:02:25.684Z,36.58
2023-03-13T12:05:08.041Z,36.18
2023-03-13T12:07:53.487Z,36.54
2023-03-13T12:10:29.234Z,36.69
2023-03-13T12:13:14.427Z,36.71
2023-03-13T12:15:43.816Z,37.16
2023-03-13T12:18:17.828Z,37.48
2023-03-13T12:21:05.495Z,37.72
2023-03-13T12:23:40.005Z,37.76
2023-03-13T12:26:12.359Z,37.73
2023-03-13T12:28:45.969Z,37.56
2023-03-13T12:31:14.184Z,37.03
2023-03-13T12:33:43.889Z,36.73
2023-03-13T12:36:19.838Z,37.12
2023-03-13T12:38:50.258Z,36.72
2023-03-13T12:41:26.312Z,36.62
2023-03-13T12:44:07.847Z,36.37
2023-03-13T12:46:47.575Z,36.77
2023-03-13T12:49:16.236Z,37.04
2023-03-13T12:51:52.919Z,37.26
2023-03-13T12:54:32.145Z,36.94
2023-03-13T12:57:13.226Z,36.25
2023-03-13T12:59:42.029Z,35.81
2023-03-13T13:02:17.256Z,35.50
2023-03-13T13:04:46.283Z,35.88
2023-03-13T13:07:25.100Z,36.18
2023-03-13T13:10:01.047Z,36.63
2023-03-13T13:12:30.964Z,36.68
2023-03-13T13:15:00.614Z,35.80
2023-03-13T13:17:34.405Z,35.30
2023-03-13T13:20:23.229Z,35.12
2023-03-13T13:22:52.835Z,35.10
2023-03-13T13:25:24.291Z,35.46
2023-03-13T13:27:52.778Z,35.81
2023-03-13T13:30:21.293Z,36.04
2023-03-13T13:32:50.546Z,36.14
2023-03-13T13:35:24.773Z,36.47
2023-03-13T13:38:03.295Z,37.00
2023-03-13T13:40:31.990Z,36.99
2023-03-13T13:43:01.397Z,37.22
2023-03-13T13:45:34.227Z,37.13
2023-03-13T13:48:15.823Z,37.18
2023-03-13T13:51:05.255Z,37.31
2023-03-13T13:53:35.073Z,37.36
2023-03-13T13:56:10.622Z,37.09
2023-03-13T13:58:41.032Z,36.42
2023-03-13T14:01:14.963Z,36.17
2023-03-13T14:03:50.733Z,36.40
2023-03-13T14:06:20.210Z,36.25
2023-03-13T14:08:49.201Z,36.40
2023-03-13T14:11:28.445Z,36.55
2023-03-13T14:14:23.349Z,36.78
2023-03-13T14:16:57.362Z,36.89
2023-03-13T14:19:27.929Z,37.35
2023-03-13T14:22:00.006Z,37.07
2023-03-13T14:24:28.135Z,36.84
2023-03-13T14:26:56.319Z,37.02
2023-03-13T14:29:27.359Z,36.99
2023-03-13T14:31:56.675Z,37.09
2023-03-13T14:34:32.752Z,37.15
2023-03-13T14:37:17.284Z,37.17
2023-03-13T14:39:46.685Z,37.31
2023-03-13T14:42:17.932Z,37.51
2023-03-13T14:44:47.581Z,37.88
2023-03-13T14:47:25.979Z,38.09
2023-03-13T14:50:00.793Z,38.10
2023-03-13T14:52:34.293Z,38.20
2023-03-13T14:55:05.619Z,38.31
2023-03-13T14:57:34.325Z,38.52
2023-03-13T15:00:22.679Z,38.73
2023-03-13T15:02:51.093Z,38.86
2023-03-13T15:05:33.389Z,38.78
2023-03-13T15:08:03.534Z,38.93
2023-03-13T15:10:38.835Z,39.19
2023-03-13T15:13:25.649Z,39.27
2023-03-13T15:15:54.442Z,39.53
2023-03-13T15:18:23.750Z,39.75
2023-03-13T15:21:12.091Z,40.02
2023-03-13T15:23:40.776Z,40.13
2023-03-13T15:26:08.958Z,40.19
2023-03-13T15:28:37.233Z,40.40
2023-03-13T15:31:09.721Z,40.32
2023-03-13T15:33:37.787Z,40.29
2023-03-13T15:36:07.296Z,40.49
2023-03-13T15:38:37.018Z,40.67
2023-03-13T15:41:05.392Z,40.83
2023-03-13T15:43:33.662Z,40.93
2023-03-13T15:46:04.379Z,41.05
2023-03-13T15:48:33.819Z,41.27
2023-03-13T15:51:02.791Z,41.36
2023-03-13T15:53:32.204Z,41.54
2023-03-13T15:56:00.828Z,41.71
2023-03-13T15:58:29.482Z,41.87
2023-03-13T16:00:58.029Z,41.98
2023-03-13T16:03:27.061Z,42.13
2023-03-13T16:05:55.648Z,42.23
2023-03-13T16:08:35.203Z,42.27
2023-03-13T16:11:04.816Z,42.26
2023-03-13T16:13:33.797Z,42.33
2023-03-13T16:16:14.598Z,42.50
2023-03-13T16:18:42.845Z,42.62
2023-03-13T16:21:20.347Z,42.67
2023-03-13T16:23:49.033Z,42.81
2023-03-13T16:26:18.978Z,42.97
2023-03-13T16:28:47.631Z,43.02
2023-03-13T16:31:21.658Z,43.01
2023-03-13T16:33:53.566Z,42.98
2023-03-13T16:36:24.242Z,43.27
2023-03-13T16:39:08.702Z,43.47
2023-03-13T16:41:36.981Z,43.80
2023-03-13T16:44:09.785Z,44.04
2023-03-13T16:46:42.386Z,44.19
2023-03-13T16:49:13.521Z,44.36
2023-03-13T16:51:42.079Z,44.50
2023-03-13T16:54:12.303Z,44.57
2023-03-13T16:56:44.374Z,44.81
2023-03-13T16:59:13.410Z,45.02
2023-03-13T17:01:41.645Z,45.08
2023-03-13T17:04:09.996Z,45.09
2023-03-13T17:06:38.919Z,45.18
2023-03-13T17:09:11.395Z,45.19
2023-03-13T17:11:40.085Z,45.51
2023-03-13T17:14:08.826Z,45.69
2023-03-13T17:16:40.426Z,45.78
2023-03-13T17:19:10.342Z,46.07
2023-03-13T17:21:38.722Z,46.11
2023-03-13T17:24:07.873Z,46.13
2023-03-13T17:26:41.017Z,46.20
2023-03-13T17:29:19.232Z,46.25
2023-03-13T17:31:47.556Z,46.30
2023-03-13T17:34:17.112Z,46.30
2023-03-13T17:36:45.712Z,46.33
2023-03-13T17:39:14.215Z,46.34
2023-03-13T17:41:43.072Z,46.34
2023-03-13T17:44:11.351Z,46.35
2023-03-13T17:46:45.013Z,46.42
2023-03-13T17:49:16.822Z,46.41
2023-03-13T17:51:46.564Z,46.45
2023-03-13T17:54:16.009Z,46.58
2023-03-13T17:56:44.723Z,46.71
2023-03-13T17:59:14.134Z,46.79
2023-03-13T18:01:42.600Z,46.99
2023-03-13T18:04:12.021Z,47.13
2023-03-13T18:06:43.167Z,47.24
2023-03-13T18:09:15.452Z,47.50
2023-03-13T18:11:48.332Z,47.63
2023-03-13T18:14:19.680Z,47.64
2023-03-13T18:16:50.478Z,47.75
2023-03-13T18:19:25.769Z,47.94
2023-03-13T18:21:55.552Z,48.02
2023-03-13T18:24:27.915Z,48.11
2023-03-13T18:26:56.431Z,48.25
2023-03-13T18:29:29.449Z,48.37
2023-03-13T18:31:59.187Z,48.45
2023-03-13T18:34:27.720Z,48.62
2023-03-13T18:36:56.349Z,48.70
2023-03-13T18:39:27.403Z,48.84
2023-03-13T18:41:55.831Z,48.91
2023-03-13T18:44:24.327Z,48.99
2023-03-13T18:46:53.297Z,49.10
2023-03-13T18:49:21.993Z,49.19
2023-03-13T18:51:53.139Z,49.36
2023-03-13T18:54:21.254Z,49.38
2023-03-13T18:56:49.400Z,49.65
2023-03-13T18:59:21.220Z,49.76
2023-03-13T19:01:49.709Z,49.97
2023-03-13T19:04:18.740Z,50.08
2023-03-13T19:06:51.626Z,50.18
2023-03-13T19:09:42.846Z,50.33
2023-03-13T19:12:10.503Z,50.52
2023-03-13T19:14:38.986Z,50.60
2023-03-13T19:17:27.237Z,50.73
2023-03-13T19:19:57.586Z,50.74
2023-03-13T19:22:25.848Z,50.84
2023-03-13T19:24:54.543Z,50.88
2023-03-13T19:27:22.807Z,50.97
2023-03-13T19:29:50.990Z,51.07
2023-03-13T19:32:19.735Z,51.07
2023-03-13T19:34:50.024Z,51.17
2023-03-13T19:37:21.282Z,51.19
2023-03-13T19:40:01.836Z,51.14
2023-03-13T19:42:55.216Z,51.16
2023-03-13T19:45:51.869Z,51.08
2023-03-13T19:48:34.538Z,51.12
2023-03-13T19:51:21.488Z,51.24
2023-03-13T19:54:23.432Z,51.22
2023-03-13T19:57:04.814Z,51.24
2023-03-13T19:59:56.601Z,51.27
2023-03-13T20:03:07.568Z,51.39
2023-03-13T20:05:55.401Z,51.41
2023-03-13T20:08:52.306Z,51.52
2023-03-13T20:11:49.154Z,51.55
2023-03-13T20:14:40.077Z,51.53
2023-03-13T20:17:30.261Z,51.63
2023-03-13T20:27:15.298Z,51.70
2023-03-13T20:29:43.666Z,51.74
2023-03-13T20:32:13.700Z,51.70
2023-03-13T20:34:42.175Z,51.79
2023-03-13T20:37:10.759Z,51.83
2023-03-13T20:39:44.051Z,51.84
2023-03-13T20:42:13.365Z,51.90
2023-03-13T20:44:42.147Z,51.90
2023-03-13T20:47:10.525Z,51.90
2023-03-13T20:49:41.368Z,51.95
2023-03-13T20:52:09.643Z,52.00
2023-03-13T20:54:39.047Z,51.94
2023-03-13T20:57:08.869Z,51.84
2023-03-13T20:59:37.549Z,51.88
2023-03-13T21:02:06.799Z,51.78
2023-03-13T21:04:37.562Z,51.80
2023-03-13T21:07:05.766Z,51.70
2023-03-13T21:09:36.511Z,51.82
2023-03-13T21:12:05.532Z,51.82
2023-03-13T21:14:35.308Z,51.81
2023-03-13T21:17:04.340Z,51.79
2023-03-13T21:19:34.328Z,51.81
2023-03-13T21:22:02.504Z,51.98
2023-03-13T21:24:32.183Z,51.99
2023-03-13T21:27:01.413Z,52.01
2023-03-13T21:29:37.914Z,52.10
2023-03-13T21:32:06.778Z,52.10
2023-03-13T21:34:35.262Z,52.14
2023-03-13T21:37:03.795Z,52.17
2023-03-13T21:39:32.470Z,52.24
2023-03-13T21:42:00.921Z,52.26
2023-03-13T21:44:29.508Z,52.20
2023-03-13T21:46:57.806Z,52.21
2023-03-13T21:49:26.361Z,52.17
2023-03-13T21:51:56.727Z,52.17
2023-03-13T21:54:26.987Z,52.07
2023-03-13T21:56:55.837Z,52.11
2023-03-13T21:59:27.642Z,52.07
2023-03-13T22:01:56.754Z,52.03
2023-03-13T22:04:27.912Z,52.04
2023-03-13T22:06:57.218Z,51.98
2023-03-13T22:09:26.048Z,52.07
2023-03-13T22:11:57.663Z,52.02
2023-03-13T22:14:28.228Z,52.02
2023-03-13T22:16:56.379Z,52.02
2023-03-13T22:19:27.412Z,51.96
2023-03-13T22:21:55.770Z,51.98
2023-03-13T22:24:24.077Z,51.98
2023-03-13T22:26:53.487Z,52.07
2023-03-13T22:29:23.089Z,51.94
2023-03-13T22:31:51.776Z,51.92
2023-03-13T22:34:20.362Z,51.88
2023-03-13T22:36:48.945Z,51.90
2023-03-13T22:39:17.750Z,52.00
2023-03-13T22:41:45.921Z,52.00
2023-03-13T22:44:15.339Z,51.96
2023-03-13T22:46:43.619Z,51.96
2023-03-13T22:49:15.580Z,52.02
2023-03-13T22:51:44.326Z,51.99
2023-03-13T22:54:12.482Z,52.05
2023-03-13T22:56:40.706Z,52.13
2023-03-13T22:59:09.089Z,51.95
2023-03-13T23:01:38.902Z,52.01
2023-03-13T23:04:07.184Z,52.00
2023-03-13T23:06:35.464Z,51.95
2023-03-13T23:09:03.943Z,52.06
2023-03-13T23:11:32.449Z,52.03
2023-03-13T23:14:01.151Z,52.03
2023-03-13T23:16:29.912Z,52.06
2023-03-13T23:18:58.837Z,52.13
2023-03-13T23:21:27.796Z,52.18
2023-03-13T23:23:56.140Z,52.17
2023-03-13T23:26:24.356Z,52.21
2023-03-13T23:28:54.171Z,52.22
2023-03-13T23:31:22.616Z,52.16
2023-03-13T23:33:53.286Z,52.20
2023-03-13T23:36:22.069Z,52.12
2023-03-13T23:38:51.107Z,52.07
2023-03-13T23:41:19.859Z,52.06
2023-03-13T23:43:48.148Z,52.07
2023-03-13T23:46:23.493Z,52.10
2023-03-13T23:48:53.311Z,52.03
2023-03-13T23:51:24.969Z,51.98
2023-03-13T23:53:53.355Z,51.90
2023-03-13T23:56:53.562Z,51.88
2023-03-13T23:59:22.059Z,51.98
